Weerstation
Sluispark-LeuvenLeuven-Sluispark



Het weer levert geen direct gevaar op.    Er zijn geen waarschuwingen afgegeven.

Nabijgelegen vliegvelden - METAR rapporten

   
EBBR - Wilsele bij Leuven
Gewijzigd: 15-02-2019 23:50
Helder    Wind: Zuiden 11.1 km/h
Helder
Wind: Wind: Zuiden 11.1 km/h
Temperatuur: 6°C
Voelt als: 4°C
Dauwpunt: 1°C
Vochtigheid: 71%
Barometer: 1026 hPa
Zicht: meer dan 10 km
Bewolking: Helder
EBBR 152250Z 18006KT CAVOK 06/01 Q1026 NOSIG
EBAW - Antwerp
Gewijzigd: 16-02-2019 00:20
Helder    Wind: ZZO 7.4 km/h
Helder
Wind: Wind: ZZO 7.4 km/h
Temperatuur: 3°C
Voelt als: 1°C
Dauwpunt: 0°C
Vochtigheid: 81%
Barometer: 1026 hPa
Zicht: meer dan 10 km
Bewolking: Helder
EBAW 152320Z AUTO 15004KT CAVOK 03/M00 Q1026
EBLG - Li├Ęge
Gewijzigd: 16-02-2019 00:20
Helder    Wind: Zuiden 13 km/h
Helder
Wind: Wind: Zuiden 13 km/h
Temperatuur: 9°C
Voelt als: 7°C
Dauwpunt: -1°C
Vochtigheid: 50%
Barometer: 1026 hPa
Zicht: meer dan 10 km
Bewolking: Helder
EBLG 152320Z 17007KT 140V200 CAVOK 09/M01 Q1026 NOSIG
EBCV - Mons/Bergen
Gewijzigd: 16-02-2019 00:25
Helder    Wind: Zuiden 13 km/h
Helder
Wind: Wind: Zuiden 13 km/h
Temperatuur: 5°C
Voelt als: 2°C
Dauwpunt: 1°C
Vochtigheid: 76%
Barometer: 1026 hPa
Bewolking: Helder
Zicht: meer dan 10 km
Bewolking: Helder
EBCV 152325Z AUTO 17007KT 9999 NCD 05/01 Q1026 BLU
EHBK - Maastricht
Gewijzigd: 16-02-2019 00:25
Helder    Wind: Zuiden 5.6 km/h
Helder
Wind: Wind: Zuiden 5.6 km/h
Temperatuur: 7°C
Voelt als: 6°C
Dauwpunt: -1°C
Vochtigheid: 57%
Barometer: 1026 hPa
Bewolking: Helder
Zicht: meer dan 10 km
Bewolking: Helder
EHBK 152325Z AUTO 19003KT 9999 NCD 07/M01 Q1026
ELLX - Luxemburg
Gewijzigd: 16-02-2019 00:20
Helder    Wind: ZO 7.4 km/h
Helder
Wind: Wind: ZO 7.4 km/h
Temperatuur: 7°C
Voelt als: 6°C
Dauwpunt: 0°C
Vochtigheid: 61%
Barometer: 1028 hPa
Bewolking: Helder
Zicht: meer dan 10 km
Bewolking: Helder
ELLX 152320Z AUTO 13004KT 9999 NCD 07/M00 Q1028 NOSIG
EBOS - Oostende
Gewijzigd: 16-02-2019 00:20
Gedeeltelijk bewolkt    Wind: ZZW 11.1 km/h
Gedeeltelijk bewolkt
Wind: Wind: ZZW 11.1 km/h
Temperatuur: 2°C
Voelt als: -1°C
Dauwpunt: 1°C
Vochtigheid: 93%
Barometer: 1026 hPa
Bewolking: Gedeeltelijk bewolkt
Zicht: 8 km
Bewolking: Gedeeltelijk bewolkt
EBOS 152320Z 20006KT 8000 NSC 02/01 Q1026 NOSIG
  

Script ontwikkeld door  Saratoga-weather.org Aangepast voor de template door  Weerstation Leuven

U vindt ons ook hier:

UK Metoffice

WeatherCloud

European Weather Network

Weather Underground

Benelux Weather Network

AWEKAS

WeatherlinkIP

Het Weer Aktueel

Apparatuur in gebruik:

Weer-station
Davis VP2 weatherstation

Weer-programma
Meteobridge

Weer-computer
D-Link DIR-505

Webleverancier
Robohost

Davis VP2 weatherstation

Meteobridge

D-Link DIR-505

Robohost